Time;durP1;ratioP1;P1;durP2;ratioP2;P2;SDS_P1;SDS_P2;PMS_P1;PMS_P2;Temp;Humidity;BMP_temperature;BMP_pressure;BME280_temperature;BME280_humidity;BME280_pressure;Samples;Min_cycle;Max_cycle;Signal;HPM_P1;HPM_P2
2022/12/24 00:00:17;;;;;;;;;;;;;;;14.04;72.83;100155.28;1052321;28;681;-73
2022/12/24 00:01:11;;;;;;;;;;;;;;;14.04;73.18;100163.31;1057398;28;1257;-72
2022/12/24 00:02:01;;;;;;;;;;;;;;;14.05;73.05;100159.66;1059815;27;1654;-72
2022/12/24 00:02:52;;;;;;;;;;;;;;;14.06;72.88;100166.69;1056460;28;1282;-72
2022/12/24 00:03:42;;;;;;;;;;;;;;;14.05;72.79;100167.69;1052341;28;1050;-72
2022/12/24 00:04:32;;;;;;;;;;;;;;;14.04;72.59;100165.16;1051003;28;677;-72
2022/12/24 00:05:23;;;;;;;;;;;;;;;14.05;72.84;100166.84;1051900;28;1178;-72
2022/12/24 00:06:13;;;;;;;;;;;;;;;14.05;72.58;100162.31;1052362;28;766;-72
2022/12/24 00:07:04;;;;;;;;;;;;;;;14.05;72.82;100167.69;1057358;28;621;-72
2022/12/24 00:07:54;;;;;;;;;;;;;;;14.04;73.10;100167.81;1052963;28;726;-72
2022/12/24 00:08:44;;;;;;;;;;;;;;;14.03;72.67;100166.97;1060028;28;1154;-72
2022/12/24 00:09:35;;;;;;;;;;;;;;;14.05;72.79;100170.38;1057540;28;609;-72
2022/12/24 00:10:25;;;;;;;;;;;;;;;14.04;73.23;100168.66;1054466;28;1210;-72
2022/12/24 00:11:16;;;;;;;;;;;;;;;14.05;73.04;100172.19;1052981;28;617;-72
2022/12/24 00:12:06;;;;;;;;;;;;;;;14.03;73.15;100169.66;1053010;28;1131;-72
2022/12/24 00:12:57;;;;;;;;;;;;;;;14.03;73.01;100172.34;1052912;28;1050;-72
2022/12/24 00:13:47;;;;;;;;;;;;;;;14.05;72.54;100175.72;1057362;28;1902;-72
2022/12/24 00:14:37;;;;;;;;;;;;;;;14.05;73.45;100178.41;1053072;28;679;-72
2022/12/24 00:15:28;;;;;;;;;;;;;;;14.05;72.96;100180.22;1054508;28;1178;-72
2022/12/24 00:16:18;;;;;;;;;;;;;;;14.03;73.32;100174.16;1055639;28;723;-72
2022/12/24 00:17:09;;;;;;;;;;;;;;;14.03;72.65;100166.13;1054655;28;996;-72
2022/12/24 00:17:59;;;;;;;;;;;;;;;14.02;73.15;100172.47;1055668;28;660;-72
2022/12/24 00:18:50;;;;;;;;;;;;;;;14.01;72.58;100170.78;1055133;28;1015;-72
2022/12/24 00:19:42;;;;;;;;;;;;;;;14.01;72.79;100174.31;1055530;28;614;-72
2022/12/24 00:20:32;;;;;;;;;;;;;;;14.01;73.02;100176.97;1056452;28;697;-72
2022/12/24 00:21:22;;;;;;;;;;;;;;;14.03;73.16;100184.88;1052383;28;664;-72
2022/12/24 00:22:13;;;;;;;;;;;;;;;14.02;73.16;100194.75;1055067;28;964;-72
2022/12/24 00:23:03;;;;;;;;;;;;;;;14.01;73.27;100187.69;1055622;28;735;-72
2022/12/24 00:23:54;;;;;;;;;;;;;;;14.03;73.45;100184.88;1051681;28;676;-72
2022/12/24 00:24:44;;;;;;;;;;;;;;;14.02;72.94;100184.03;1051657;28;631;-72
2022/12/24 00:25:35;;;;;;;;;;;;;;;14.03;72.98;100184.88;1055962;28;1051;-72
2022/12/24 00:26:25;;;;;;;;;;;;;;;14.03;72.83;100190.25;1055404;28;606;-73
2022/12/24 00:27:15;;;;;;;;;;;;;;;14.02;73.28;100189.38;1049621;28;680;-72
2022/12/24 00:28:06;;;;;;;;;;;;;;;14.04;72.84;100183.91;1048450;28;610;-72
2022/12/24 00:28:56;;;;;;;;;;;;;;;14.03;73.30;100179.53;1054999;28;1169;-72
2022/12/24 00:29:47;;;;;;;;;;;;;;;14.02;73.18;100189.38;1057210;28;705;-72
2022/12/24 00:30:37;;;;;;;;;;;;;;;14.04;73.23;100192.78;1056356;28;1207;-72
2022/12/24 00:31:28;;;;;;;;;;;;;;;14.02;72.90;100189.38;1055667;28;1143;-72
2022/12/24 00:32:18;;;;;;;;;;;;;;;14.04;73.07;100199.97;1056109;28;656;-72
2022/12/24 00:33:09;;;;;;;;;;;;;;;14.03;72.87;100185.72;1055516;28;1170;-72
2022/12/24 00:33:59;;;;;;;;;;;;;;;14.02;72.64;100197.44;1055847;28;1960;-72
2022/12/24 00:34:49;;;;;;;;;;;;;;;14.02;72.78;100194.75;1051785;28;705;-72
2022/12/24 00:35:40;;;;;;;;;;;;;;;14.03;73.27;100204.47;1056062;28;637;-73
2022/12/24 00:36:30;;;;;;;;;;;;;;;14.01;73.01;100203.78;1058483;28;707;-72
2022/12/24 00:37:21;;;;;;;;;;;;;;;14.01;73.04;100201.09;1052563;28;1206;-73
2022/12/24 00:38:11;;;;;;;;;;;;;;;14.00;73.20;100196.72;1052002;28;813;-72
2022/12/24 00:39:02;;;;;;;;;;;;;;;14.00;72.82;100190.50;1056375;28;1229;-72
2022/12/24 00:39:52;;;;;;;;;;;;;;;13.99;72.82;100199.53;1055363;28;734;-72
2022/12/24 00:40:43;;;;;;;;;;;;;;;13.99;72.75;100200.38;1055995;28;1236;-72
2022/12/24 00:41:33;;;;;;;;;;;;;;;14.00;73.38;100195.88;1054536;28;1098;-72
2022/12/24 00:42:23;;;;;;;;;;;;;;;14.00;73.48;100201.22;1057076;28;1170;-72
2022/12/24 00:43:14;;;;;;;;;;;;;;;14.01;73.50;100201.09;1053496;28;790;-72
2022/12/24 00:44:04;;;;;;;;;;;;;;;14.01;73.53;100209.13;1056008;28;787;-72
2022/12/24 00:44:55;;;;;;;;;;;;;;;14.02;72.95;100205.47;1053497;28;637;-72
2022/12/24 00:45:45;;;;;;;;;;;;;;;14.01;73.26;100203.78;1054205;28;1221;-72
2022/12/24 00:46:36;;;;;;;;;;;;;;;14.00;73.28;100211.94;1053550;28;747;-72
2022/12/24 00:47:26;;;;;;;;;;;;;;;14.01;73.43;100209.13;1052411;28;693;-72
2022/12/24 00:48:17;;;;;;;;;;;;;;;14.01;73.25;100203.78;1056000;28;704;-72
2022/12/24 00:49:07;;;;;;;;;;;;;;;14.00;72.87;100218.16;1051570;28;677;-72
2022/12/24 00:49:57;;;;;;;;;;;;;;;14.00;72.87;100209.25;1053905;28;1185;-72
2022/12/24 00:50:48;;;;;;;;;;;;;;;13.99;72.80;100204.88;1055201;28;721;-72
2022/12/24 00:51:38;;;;;;;;;;;;;;;13.97;73.23;100218.44;1055947;28;672;-72
2022/12/24 00:52:29;;;;;;;;;;;;;;;13.98;72.58;100214.75;1055815;28;683;-72
2022/12/24 00:53:19;;;;;;;;;;;;;;;13.98;73.27;100214.75;1056038;28;693;-72
2022/12/24 00:54:10;;;;;;;;;;;;;;;13.98;72.50;100225.47;1059935;28;1055;-72
2022/12/24 00:55:00;;;;;;;;;;;;;;;14.00;73.36;100228.00;1060410;28;1185;-72
2022/12/24 00:55:51;;;;;;;;;;;;;;;13.99;73.29;100221.81;1055482;28;723;-72
2022/12/24 00:56:41;;;;;;;;;;;;;;;13.99;72.72;100229.84;1055611;28;1170;-72
2022/12/24 00:57:31;;;;;;;;;;;;;;;13.98;73.04;100222.78;1053806;28;1627;-72
2022/12/24 00:58:22;;;;;;;;;;;;;;;14.00;72.78;100230.69;1055160;28;728;-72
2022/12/24 00:59:12;;;;;;;;;;;;;;;13.98;73.19;100233.50;1055385;28;1106;-72
2022/12/24 01:00:03;;;;;;;;;;;;;;;13.99;72.81;100237.88;1052989;28;655;-72
2022/12/24 01:00:53;;;;;;;;;;;;;;;13.98;72.67;100238.84;1049824;28;1083;-72
2022/12/24 01:01:43;;;;;;;;;;;;;;;13.98;72.58;100241.53;1052557;28;642;-72
2022/12/24 01:02:34;;;;;;;;;;;;;;;13.99;73.10;100242.38;1055546;28;1166;-72
2022/12/24 01:03:36;;;;;;;;;;;;;;;13.99;73.21;100237.03;1055481;28;771;-72
2022/12/24 01:05:36;;;;;;;;;;;;;;;13.96;73.37;100243.53;1052776;28;693;-73
2022/12/24 01:06:26;;;;;;;;;;;;;;;13.96;72.90;100246.22;1051798;28;682;-72
2022/12/24 01:07:17;;;;;;;;;;;;;;;13.96;72.85;100243.53;1053433;28;654;-73
2022/12/24 01:08:08;;;;;;;;;;;;;;;13.96;73.14;100242.69;1054261;28;1707;-72
2022/12/24 01:08:58;;;;;;;;;;;;;;;13.97;72.71;100250.59;1053422;28;707;-72
2022/12/24 01:09:49;;;;;;;;;;;;;;;13.95;73.44;100249.88;1052080;28;705;-72
2022/12/24 01:10:39;;;;;;;;;;;;;;;13.96;72.79;100248.03;1052145;28;607;-72
2022/12/24 01:11:30;;;;;;;;;;;;;;;13.97;73.29;100255.09;1057006;28;730;-73
2022/12/24 01:12:20;;;;;;;;;;;;;;;13.96;73.14;100254.25;1055556;28;1214;-72
2022/12/24 01:13:10;;;;;;;;;;;;;;;13.95;72.99;100257.06;1055286;28;725;-72
2022/12/24 01:14:01;;;;;;;;;;;;;;;13.95;73.35;100268.63;1055221;28;1910;-72
2022/12/24 01:14:51;;;;;;;;;;;;;;;13.94;73.22;100261.56;1055265;28;761;-72
2022/12/24 01:15:42;;;;;;;;;;;;;;;13.94;72.96;100261.56;1055823;28;1178;-72
2022/12/24 01:16:32;;;;;;;;;;;;;;;13.93;72.75;100262.56;1055093;28;757;-72
2022/12/24 01:17:22;;;;;;;;;;;;;;;13.94;72.80;100272.28;1052161;28;641;-72
2022/12/24 01:18:13;;;;;;;;;;;;;;;13.95;73.25;100273.13;1054856;28;753;-72
2022/12/24 01:19:03;;;;;;;;;;;;;;;13.94;73.08;100272.28;1057030;28;664;-72
2022/12/24 01:19:54;;;;;;;;;;;;;;;13.95;73.37;100276.66;1056960;28;1031;-72
2022/12/24 01:20:44;;;;;;;;;;;;;;;13.96;73.26;100269.47;1055192;28;714;-72
2022/12/24 01:21:35;;;;;;;;;;;;;;;13.97;73.15;100284.56;1053625;28;680;-72
2022/12/24 01:22:25;;;;;;;;;;;;;;;13.94;73.18;100283.00;1052998;28;645;-73
2022/12/24 01:23:15;;;;;;;;;;;;;;;13.95;73.09;100276.66;1051924;28;649;-73
2022/12/24 01:24:06;;;;;;;;;;;;;;;13.94;73.25;100277.66;1056491;28;653;-72
2022/12/24 01:24:56;;;;;;;;;;;;;;;13.94;73.18;100280.31;1055136;28;1077;-73
2022/12/24 01:25:47;;;;;;;;;;;;;;;13.95;73.05;100279.34;1056284;28;645;-73
2022/12/24 01:26:37;;;;;;;;;;;;;;;13.95;73.09;100279.34;1057034;28;1206;-73
2022/12/24 01:27:28;;;;;;;;;;;;;;;13.95;73.17;100281.16;1056884;28;1762;-73
2022/12/24 01:28:18;;;;;;;;;;;;;;;13.95;73.09;100278.50;1052873;28;618;-73
2022/12/24 01:29:08;;;;;;;;;;;;;;;13.95;72.87;100282.03;1052566;28;692;-73
2022/12/24 01:29:59;;;;;;;;;;;;;;;13.94;72.83;100288.34;1051612;28;790;-73
2022/12/24 01:30:49;;;;;;;;;;;;;;;13.93;73.21;100283.97;1054027;28;769;-73
2022/12/24 01:31:40;;;;;;;;;;;;;;;13.93;73.40;100285.81;1052580;28;638;-73
2022/12/24 01:32:30;;;;;;;;;;;;;;;13.94;72.78;100288.34;1056987;28;1194;-73
2022/12/24 01:33:21;;;;;;;;;;;;;;;13.94;73.37;100288.34;1056719;28;649;-73
2022/12/24 01:34:11;;;;;;;;;;;;;;;13.93;73.28;100297.38;1055606;28;999;-73
2022/12/24 01:35:01;;;;;;;;;;;;;;;13.92;72.81;100289.47;1056092;28;665;-73
2022/12/24 01:35:52;;;;;;;;;;;;;;;13.93;73.19;100294.69;1056522;28;722;-73
2022/12/24 01:36:42;;;;;;;;;;;;;;;13.93;73.16;100294.69;1056645;28;645;-73
2022/12/24 01:37:33;;;;;;;;;;;;;;;13.94;73.09;100295.53;1054522;28;1105;-73
2022/12/24 01:38:23;;;;;;;;;;;;;;;13.94;72.73;100303.59;1055930;28;634;-73
2022/12/24 01:39:14;;;;;;;;;;;;;;;13.94;72.85;100300.91;1052487;28;637;-74
2022/12/24 01:43:32;;;;;;;;;;;;;;;13.92;73.20;100301.03;1052478;28;641;-74
2022/12/24 01:44:22;;;;;;;;;;;;;;;13.93;73.36;100305.41;1052730;28;689;-73
2022/12/24 01:45:13;;;;;;;;;;;;;;;13.92;72.97;100301.03;1053605;28;745;-73
2022/12/24 01:46:03;;;;;;;;;;;;;;;13.94;72.99;100300.91;1052589;28;1313;-73
2022/12/24 01:46:53;;;;;;;;;;;;;;;13.94;73.55;100303.59;1054741;28;772;-73
2022/12/24 01:47:44;;;;;;;;;;;;;;;13.93;73.28;100307.25;1056055;28;1190;-72
2022/12/24 01:48:34;;;;;;;;;;;;;;;13.92;73.55;100301.03;1055887;28;714;-72
2022/12/24 01:49:25;;;;;;;;;;;;;;;13.91;73.11;100296.66;1056633;28;1166;-72
2022/12/24 01:50:16;;;;;;;;;;;;;;;13.93;72.93;100301.88;1055786;28;698;-72
2022/12/24 01:51:06;;;;;;;;;;;;;;;13.92;73.03;100298.34;1056228;28;1205;-72
2022/12/24 01:51:56;;;;;;;;;;;;;;;13.91;73.17;100304.69;1056024;28;704;-72
2022/12/24 01:52:47;;;;;;;;;;;;;;;13.92;73.03;100301.03;1052855;28;677;-72
2022/12/24 01:53:37;;;;;;;;;;;;;;;13.90;72.90;100306.53;1049638;28;673;-72
2022/12/24 01:54:28;;;;;;;;;;;;;;;13.91;73.36;100304.69;1051936;28;1211;-72
2022/12/24 01:55:18;;;;;;;;;;;;;;;13.92;73.09;100308.22;1055607;28;1150;-72
2022/12/24 01:56:08;;;;;;;;;;;;;;;13.91;73.33;100312.72;1057629;28;683;-72
2022/12/24 01:56:59;;;;;;;;;;;;;;;13.92;73.35;100305.53;1055252;28;1087;-71
2022/12/24 01:57:49;;;;;;;;;;;;;;;13.92;73.10;100316.25;1053634;28;654;-72
2022/12/24 01:58:40;;;;;;;;;;;;;;;13.91;73.66;100310.06;1052494;28;626;-72
2022/12/24 01:59:30;;;;;;;;;;;;;;;13.93;73.38;100312.59;1053467;28;1060;-72
2022/12/24 02:00:21;;;;;;;;;;;;;;;13.92;73.04;100306.41;1057717;28;633;-72
2022/12/24 02:01:11;;;;;;;;;;;;;;;13.92;73.13;100317.09;1052027;28;657;-72
2022/12/24 02:02:01;;;;;;;;;;;;;;;13.92;73.59;100313.59;1052360;28;665;-72
2022/12/24 02:02:52;;;;;;;;;;;;;;;13.92;73.61;100311.75;1053285;28;721;-71
2022/12/24 02:03:42;;;;;;;;;;;;;;;13.92;73.55;100318.94;1052401;28;659;-71
2022/12/24 02:04:33;;;;;;;;;;;;;;;13.92;73.32;100322.47;1054386;28;972;-72
2022/12/24 02:05:23;;;;;;;;;;;;;;;13.92;73.02;100325.16;1053606;28;633;-71
2022/12/24 02:06:16;;;;;;;;;;;;;;;13.92;73.57;100327.81;1052624;28;685;-72
2022/12/24 02:07:07;;;;;;;;;;;;;;;13.91;73.65;100323.44;1057039;28;1154;-72
2022/12/24 02:07:57;;;;;;;;;;;;;;;13.91;73.43;100323.44;1056714;28;753;-71
2022/12/24 02:08:48;;;;;;;;;;;;;;;13.92;73.37;100332.34;1056319;28;1193;-71
2022/12/24 02:09:38;;;;;;;;;;;;;;;13.91;72.89;100331.47;1053360;28;1583;-71
2022/12/24 02:10:28;;;;;;;;;;;;;;;13.91;73.06;100331.47;1052674;28;1170;-72
2022/12/24 02:11:19;;;;;;;;;;;;;;;13.92;73.11;100335.00;1054039;28;870;-71
2022/12/24 02:12:09;;;;;;;;;;;;;;;13.90;73.43;100337.81;1052126;28;727;-72
2022/12/24 02:13:00;;;;;;;;;;;;;;;13.90;73.50;100335.13;1051458;28;625;-72
2022/12/24 02:13:51;;;;;;;;;;;;;;;13.91;73.32;100336.84;1052674;28;1905;-71
2022/12/24 02:14:41;;;;;;;;;;;;;;;13.90;72.98;100341.34;1052774;28;652;-72
2022/12/24 02:15:31;;;;;;;;;;;;;;;13.91;73.50;100342.19;1057453;28;1193;-72
2022/12/24 02:16:22;;;;;;;;;;;;;;;13.91;72.90;100347.56;1056289;28;669;-71
2022/12/24 02:17:12;;;;;;;;;;;;;;;13.92;73.12;100343.03;1056131;28;1130;-71
2022/12/24 02:18:03;;;;;;;;;;;;;;;13.88;73.44;100348.66;1057679;28;626;-72
2022/12/24 02:18:53;;;;;;;;;;;;;;;13.89;73.45;100345.00;1055036;28;972;-72
2022/12/24 02:19:44;;;;;;;;;;;;;;;13.90;73.08;100349.38;1056116;28;645;-72
2022/12/24 02:20:34;;;;;;;;;;;;;;;13.90;73.30;100345.84;1057379;28;1221;-71
2022/12/24 02:21:25;;;;;;;;;;;;;;;13.90;72.90;100356.56;1056394;28;637;-72
2022/12/24 02:22:15;;;;;;;;;;;;;;;13.90;73.04;100356.56;1054884;28;660;-72
2022/12/24 02:23:05;;;;;;;;;;;;;;;13.90;73.33;100356.56;1056474;28;652;-71
2022/12/24 02:23:56;;;;;;;;;;;;;;;13.90;73.46;100356.56;1056450;28;1392;-71
2022/12/24 02:24:46;;;;;;;;;;;;;;;13.89;73.47;100360.22;1056259;28;1043;-72
2022/12/24 02:25:37;;;;;;;;;;;;;;;13.89;73.60;100371.78;1056027;28;755;-72
2022/12/24 02:26:27;;;;;;;;;;;;;;;13.89;73.05;100360.22;1052042;28;664;-72
2022/12/24 02:27:18;;;;;;;;;;;;;;;13.89;73.44;100360.22;1053822;28;1118;-72
2022/12/24 02:28:08;;;;;;;;;;;;;;;13.88;73.16;100367.41;1055602;28;687;-71
2022/12/24 02:28:58;;;;;;;;;;;;;;;13.89;73.58;100362.91;1053338;28;819;-71
2022/12/24 02:29:49;;;;;;;;;;;;;;;13.87;73.01;100362.19;1053174;28;735;-72
2022/12/24 02:30:39;;;;;;;;;;;;;;;13.88;73.46;100356.69;1056105;28;1218;-72
2022/12/24 02:31:30;;;;;;;;;;;;;;;13.88;73.02;100361.22;1056521;28;660;-72
2022/12/24 02:32:20;;;;;;;;;;;;;;;13.88;73.16;100361.22;1056190;28;668;-72
2022/12/24 02:33:11;;;;;;;;;;;;;;;13.89;73.21;100360.22;1056388;28;776;-71
2022/12/24 02:34:01;;;;;;;;;;;;;;;13.89;73.08;100360.22;1052499;28;1889;-72
2022/12/24 02:34:51;;;;;;;;;;;;;;;13.89;73.42;100360.22;1057506;28;670;-72
2022/12/24 02:35:42;;;;;;;;;;;;;;;13.89;73.06;100365.59;1056502;28;704;-72
2022/12/24 02:36:32;;;;;;;;;;;;;;;13.88;73.24;100370.09;1056060;28;1217;-72
2022/12/24 02:37:23;;;;;;;;;;;;;;;13.88;73.69;100370.09;1057587;28;629;-72
2022/12/24 02:38:13;;;;;;;;;;;;;;;13.88;72.88;100370.09;1056152;28;1158;-72
2022/12/24 02:39:04;;;;;;;;;;;;;;;13.88;73.21;100370.09;1056513;28;759;-72
2022/12/24 02:39:54;;;;;;;;;;;;;;;13.88;72.88;100366.56;1054057;28;1169;-71
2022/12/24 02:40:44;;;;;;;;;;;;;;;13.89;73.32;100370.94;1055763;28;693;-71
2022/12/24 02:42:44;;;;;;;;;;;;;;;13.85;73.54;100375.72;1055947;28;1166;-71
2022/12/24 02:43:34;;;;;;;;;;;;;;;13.86;73.15;100372.06;1052754;28;664;-72
2022/12/24 02:44:25;;;;;;;;;;;;;;;13.86;73.56;100368.53;1052423;28;1151;-72
2022/12/24 02:45:15;;;;;;;;;;;;;;;13.84;73.04;100373.16;1056272;28;617;-71
2022/12/24 02:46:06;;;;;;;;;;;;;;;13.85;73.09;100369.50;1055657;28;724;-71
2022/12/24 02:46:56;;;;;;;;;;;;;;;13.84;72.85;100373.16;1057022;28;646;-72
2022/12/24 02:47:47;;;;;;;;;;;;;;;13.85;73.47;100374.84;1058020;27;697;-72
2022/12/24 02:48:37;;;;;;;;;;;;;;;13.83;73.60;100371.47;1056946;28;640;-71
2022/12/24 02:49:27;;;;;;;;;;;;;;;13.82;73.76;100381.31;1055377;28;1003;-71
2022/12/24 02:50:18;;;;;;;;;;;;;;;13.83;73.23;100371.47;1055420;28;677;-71
2022/12/24 02:51:08;;;;;;;;;;;;;;;13.83;72.98;100372.31;1055329;28;664;-71
2022/12/24 02:51:59;;;;;;;;;;;;;;;13.84;73.56;100379.38;1056271;28;1158;-72
2022/12/24 02:52:49;;;;;;;;;;;;;;;13.83;73.48;100377.66;1055660;28;765;-72
2022/12/24 02:53:40;;;;;;;;;;;;;;;13.82;73.40;100378.63;1056318;28;1178;-72
2022/12/24 02:54:30;;;;;;;;;;;;;;;13.82;73.68;100383.16;1053991;28;800;-72
2022/12/24 02:55:21;;;;;;;;;;;;;;;13.82;73.66;100383.16;1052215;28;1158;-71
2022/12/24 02:56:11;;;;;;;;;;;;;;;13.82;73.52;100380.47;1053014;28;1472;-72
2022/12/24 02:57:02;;;;;;;;;;;;;;;13.80;73.39;100388.63;1052245;28;645;-71
2022/12/24 02:57:52;;;;;;;;;;;;;;;13.81;73.37;100387.66;1052654;28;582;-71
2022/12/24 02:58:42;;;;;;;;;;;;;;;13.80;73.20;100382.44;1052687;28;708;-71
2022/12/24 02:59:33;;;;;;;;;;;;;;;13.81;73.58;100389.47;1054319;28;1134;-71
2022/12/24 03:00:23;;;;;;;;;;;;;;;13.80;73.69;100391.31;1056711;28;598;-71
2022/12/24 03:01:17;;;;;;;;;;;;;;;13.79;73.13;100384.25;1054213;28;1145;-72
2022/12/24 03:02:07;;;;;;;;;;;;;;;13.79;73.58;100391.47;1055460;28;765;-72
2022/12/24 03:02:57;;;;;;;;;;;;;;;13.79;73.17;100389.63;1060226;27;683;-71
2022/12/24 03:03:48;;;;;;;;;;;;;;;13.79;73.54;100394.16;1061076;27;1161;-72
2022/12/24 03:04:38;;;;;;;;;;;;;;;13.79;74.02;100391.47;1056949;28;668;-72
2022/12/24 03:05:29;;;;;;;;;;;;;;;13.77;73.74;100393.44;1056236;28;1122;-71
2022/12/24 03:06:19;;;;;;;;;;;;;;;13.77;73.76;100385.41;1056178;28;665;-72
2022/12/24 03:07:10;;;;;;;;;;;;;;;13.77;73.64;100385.41;1057373;28;700;-72
2022/12/24 03:08:01;;;;;;;;;;;;;;;13.78;73.23;100390.63;1055882;28;1220;-72
2022/12/24 03:08:51;;;;;;;;;;;;;;;13.78;73.04;100385.25;1056118;28;717;-71
2022/12/24 03:09:42;;;;;;;;;;;;;;;13.76;73.61;100381.88;1056176;28;1225;-71
2022/12/24 03:10:32;;;;;;;;;;;;;;;13.76;72.92;100383.69;1054962;28;959;-72
2022/12/24 03:11:23;;;;;;;;;;;;;;;13.77;73.21;100388.06;1056093;28;819;-72
2022/12/24 03:12:13;;;;;;;;;;;;;;;13.75;73.23;100384.66;1052973;28;660;-71
2022/12/24 03:13:03;;;;;;;;;;;;;;;13.76;73.55;100381.88;1052018;28;1126;-71
2022/12/24 03:13:54;;;;;;;;;;;;;;;13.77;73.12;100385.41;1053217;28;1910;-71
2022/12/24 03:14:44;;;;;;;;;;;;;;;13.76;73.66;100384.53;1052383;28;1040;-71
2022/12/24 03:15:35;;;;;;;;;;;;;;;13.76;73.80;100383.69;1053202;28;739;-71
2022/12/24 03:16:25;;;;;;;;;;;;;;;13.75;73.74;100384.66;1054346;28;1179;-71
2022/12/24 03:17:15;;;;;;;;;;;;;;;13.76;73.43;100383.69;1054221;28;683;-71
2022/12/24 03:18:06;;;;;;;;;;;;;;;13.77;73.10;100382.72;1052546;28;639;-71
2022/12/24 03:18:56;;;;;;;;;;;;;;;13.74;73.24;100389.19;1052371;28;1095;-72
2022/12/24 03:19:47;;;;;;;;;;;;;;;13.77;73.43;100390.75;1053343;28;717;-72
2022/12/24 03:20:37;;;;;;;;;;;;;;;13.75;73.08;100390.88;1052531;28;676;-72
2022/12/24 03:21:28;;;;;;;;;;;;;;;13.75;73.69;100388.19;1055073;28;710;-72
2022/12/24 03:22:18;;;;;;;;;;;;;;;13.75;73.82;100390.88;1061606;27;1182;-72
2022/12/24 03:23:08;;;;;;;;;;;;;;;13.74;73.74;100382.97;1060084;27;705;-72
2022/12/24 03:23:59;;;;;;;;;;;;;;;13.74;72.99;100381.16;1056552;28;1400;-72
2022/12/24 03:24:49;;;;;;;;;;;;;;;13.75;73.09;100384.66;1054601;28;889;-72
2022/12/24 03:25:40;;;;;;;;;;;;;;;13.74;73.44;100388.34;1055757;28;674;-72
2022/12/24 03:26:30;;;;;;;;;;;;;;;13.75;72.93;100392.72;1056910;28;864;-72
2022/12/24 03:27:20;;;;;;;;;;;;;;;13.75;73.22;100390.88;1055685;28;614;-72
2022/12/24 03:28:11;;;;;;;;;;;;;;;13.74;73.15;100396.38;1055781;28;793;-72
2022/12/24 03:29:01;;;;;;;;;;;;;;;13.75;73.33;100395.38;1052491;28;677;-72
2022/12/24 03:29:52;;;;;;;;;;;;;;;13.76;73.50;100400.63;1053625;28;637;-72
2022/12/24 03:30:42;;;;;;;;;;;;;;;13.77;73.18;100404.13;1052428;28;629;-72
2022/12/24 03:31:33;;;;;;;;;;;;;;;13.75;73.48;100403.41;1054265;28;1118;-72
2022/12/24 03:32:23;;;;;;;;;;;;;;;13.76;73.85;100397.94;1057282;28;683;-72
2022/12/24 03:33:13;;;;;;;;;;;;;;;13.73;73.41;100400.03;1055097;28;1146;-72
2022/12/24 03:34:04;;;;;;;;;;;;;;;13.73;73.74;100403.56;1057291;28;1886;-72
2022/12/24 03:34:54;;;;;;;;;;;;;;;13.73;73.65;100408.06;1055847;28;1150;-72
2022/12/24 03:35:45;;;;;;;;;;;;;;;13.75;73.09;100408.78;1055685;28;781;-72
2022/12/24 03:36:35;;;;;;;;;;;;;;;13.73;73.00;100413.41;1060409;27;1181;-72
2022/12/24 03:37:26;;;;;;;;;;;;;;;13.74;73.39;100405.25;1060112;27;784;-72
2022/12/24 03:38:16;;;;;;;;;;;;;;;13.74;73.43;100407.94;1053057;28;640;-72
2022/12/24 03:39:07;;;;;;;;;;;;;;;13.75;73.53;100409.63;1054248;28;742;-72
2022/12/24 03:39:58;;;;;;;;;;;;;;;13.74;73.85;100410.59;1056156;28;1242;-72
2022/12/24 03:40:48;;;;;;;;;;;;;;;13.73;73.48;100408.06;1055468;28;721;-72
2022/12/24 03:41:39;;;;;;;;;;;;;;;13.73;73.76;100408.91;1051965;28;606;-72
2022/12/24 03:42:29;;;;;;;;;;;;;;;13.73;73.03;100410.72;1053252;28;1020;-72
2022/12/24 03:43:20;;;;;;;;;;;;;;;13.74;73.38;100412.44;1055656;28;727;-72
2022/12/24 03:44:10;;;;;;;;;;;;;;;13.75;73.90;100406.09;1057208;28;722;-72
2022/12/24 03:45:00;;;;;;;;;;;;;;;13.73;73.11;100413.41;1057139;28;1209;-72
2022/12/24 03:45:51;;;;;;;;;;;;;;;13.76;73.13;100418.50;1053141;28;668;-73
2022/12/24 03:46:41;;;;;;;;;;;;;;;13.76;73.66;100415.84;1054342;28;1127;-73
2022/12/24 03:47:32;;;;;;;;;;;;;;;13.76;73.49;100416.69;1053088;28;995;-72
2022/12/24 03:48:22;;;;;;;;;;;;;;;13.74;73.37;100409.75;1053445;28;1209;-72
2022/12/24 03:49:13;;;;;;;;;;;;;;;13.73;73.62;100416.94;1053605;28;609;-72
2022/12/24 03:50:03;;;;;;;;;;;;;;;13.71;73.27;100423.41;1052087;28;634;-72
2022/12/24 03:50:53;;;;;;;;;;;;;;;13.71;73.33;100420.72;1052385;28;712;-72
2022/12/24 03:51:44;;;;;;;;;;;;;;;13.70;74.01;100417.19;1052053;28;683;-72
2022/12/24 03:52:34;;;;;;;;;;;;;;;13.71;73.32;100408.19;1051738;28;689;-72
2022/12/24 03:53:25;;;;;;;;;;;;;;;13.71;73.92;100420.72;1052513;28;717;-72
2022/12/24 03:54:15;;;;;;;;;;;;;;;13.70;73.13;100419.03;1054246;28;1910;-72
2022/12/24 03:55:05;;;;;;;;;;;;;;;13.70;73.86;100408.31;1055755;28;661;-72
2022/12/24 03:55:56;;;;;;;;;;;;;;;13.70;73.01;100413.66;1056737;28;688;-72
2022/12/24 03:56:46;;;;;;;;;;;;;;;13.70;73.37;100414.50;1057101;28;972;-72
2022/12/24 03:57:37;;;;;;;;;;;;;;;13.69;73.76;100423.53;1055784;28;630;-72
2022/12/24 03:58:27;;;;;;;;;;;;;;;13.68;73.39;100419.16;1055153;28;1037;-72
2022/12/24 03:59:18;;;;;;;;;;;;;;;13.70;73.17;100417.19;1055856;28;1130;-72
2022/12/24 04:00:08;;;;;;;;;;;;;;;13.70;73.25;100419.03;1055743;28;655;-72
2022/12/24 04:00:59;;;;;;;;;;;;;;;13.71;73.82;100415.38;1051785;28;640;-72
2022/12/24 04:01:49;;;;;;;;;;;;;;;13.70;73.69;100413.66;1052387;28;754;-72
2022/12/24 04:02:39;;;;;;;;;;;;;;;13.71;73.15;100410.00;1054646;28;1209;-72
2022/12/24 04:03:30;;;;;;;;;;;;;;;13.69;74.03;100410.13;1053599;28;1134;-72
2022/12/24 04:04:20;;;;;;;;;;;;;;;13.69;73.23;100414.63;1055380;28;682;-72
2022/12/24 04:05:11;;;;;;;;;;;;;;;13.68;73.95;100426.34;1056233;28;1142;-72
2022/12/24 04:06:01;;;;;;;;;;;;;;;13.69;74.10;100425.34;1057066;28;659;-72
2022/12/24 04:06:52;;;;;;;;;;;;;;;13.68;73.97;100429.00;1056410;28;1181;-73
2022/12/24 04:07:42;;;;;;;;;;;;;;;13.69;74.08;100426.19;1055662;28;1233;-73
2022/12/24 04:08:32;;;;;;;;;;;;;;;13.69;73.42;100428.03;1051885;28;688;-73
2022/12/24 04:09:23;;;;;;;;;;;;;;;13.69;73.88;100423.53;1053339;28;1178;-73
2022/12/24 04:10:13;;;;;;;;;;;;;;;13.70;73.57;100427.91;1060990;28;683;-73
2022/12/24 04:11:04;;;;;;;;;;;;;;;13.72;73.53;100439.34;1057939;28;693;-73
2022/12/24 04:11:54;;;;;;;;;;;;;;;13.72;73.69;100438.50;1057701;28;1225;-73
2022/12/24 04:12:44;;;;;;;;;;;;;;;13.70;73.79;100435.09;1057110;28;768;-73
2022/12/24 04:13:35;;;;;;;;;;;;;;;13.70;73.28;100430.59;1055953;28;1266;-73
2022/12/24 04:14:25;;;;;;;;;;;;;;;13.72;73.50;100430.47;1054627;28;751;-73
2022/12/24 04:15:16;;;;;;;;;;;;;;;13.71;73.80;100431.44;1055949;28;1170;-73
2022/12/24 04:16:06;;;;;;;;;;;;;;;13.71;73.86;100434.09;1055183;28;835;-73
2022/12/24 04:16:57;;;;;;;;;;;;;;;13.71;73.89;100426.06;1060135;28;645;-72
2022/12/24 04:17:47;;;;;;;;;;;;;;;13.69;73.91;100430.72;1059724;28;734;-73
2022/12/24 04:18:38;;;;;;;;;;;;;;;13.67;73.97;100427.31;1056525;28;1228;-73
2022/12/24 04:19:28;;;;;;;;;;;;;;;13.68;73.42;100429.00;1053167;28;723;-73
2022/12/24 04:20:18;;;;;;;;;;;;;;;13.69;73.83;100431.56;1054566;28;1194;-73
2022/12/24 04:21:09;;;;;;;;;;;;;;;13.69;73.95;100434.25;1053079;28;699;-73
2022/12/24 04:21:59;;;;;;;;;;;;;;;13.69;73.90;100423.53;1052261;28;720;-73
2022/12/24 04:22:50;;;;;;;;;;;;;;;13.69;74.18;100426.19;1051940;28;566;-73
2022/12/24 04:23:40;;;;;;;;;;;;;;;13.69;73.95;100433.38;1052289;28;700;-73
2022/12/24 04:24:31;;;;;;;;;;;;;;;13.68;73.44;100437.03;1055482;28;1540;-73
2022/12/24 04:25:21;;;;;;;;;;;;;;;13.69;73.29;100436.06;1055679;28;729;-73
2022/12/24 04:26:12;;;;;;;;;;;;;;;13.71;73.98;100439.47;1057700;28;1443;-73
2022/12/24 04:27:02;;;;;;;;;;;;;;;13.69;73.47;100438.75;1056034;28;688;-73
2022/12/24 04:27:52;;;;;;;;;;;;;;;13.68;73.99;100437.88;1053903;28;1205;-73
2022/12/24 04:28:43;;;;;;;;;;;;;;;13.69;73.98;100438.75;1055560;28;761;-73
2022/12/24 04:29:33;;;;;;;;;;;;;;;13.69;74.11;100438.75;1055907;28;609;-73
2022/12/24 04:30:24;;;;;;;;;;;;;;;13.69;73.62;100446.78;1051739;28;735;-73